Terminal Aerodrome Forecast
Issued by NWS Twin Cities, MN

Home | Current Version | Previous Version | Text Only | Print | Product List | Glossary On
Versions: 1 2 3 4 5 6 7 8 9 10 11 12 13 14 15 16 17
000
FTUS43 KMPX 251700
TAFEAU
TAF
KEAU 251740Z 2518/2618 22008KT P6SM OVC015
     FM252000 VRB03KT P6SM BKN015 OVC100
     FM260500 06003KT P6SM OVC015=

USA.gov is the U.S. government's official web portal to all federal, state and local government web resources and services.